createdAt,value
2018-12-19T00:02:03.820Z,83.72
2018-12-19T00:07:06.448Z,83.77
2018-12-19T00:12:09.040Z,83.46
2018-12-19T00:17:11.612Z,83.31
2018-12-19T00:22:14.180Z,84.00
2018-12-19T00:27:16.862Z,82.90
2018-12-19T00:32:19.814Z,82.73
2018-12-19T00:37:23.150Z,83.16
2018-12-19T00:42:25.794Z,83.24
2018-12-19T00:47:28.643Z,82.59
2018-12-19T00:52:31.489Z,82.15
2018-12-19T00:57:34.198Z,82.29
2018-12-19T01:02:36.851Z,82.32
2018-12-19T01:07:39.436Z,81.53
2018-12-19T01:12:42.005Z,81.42
2018-12-19T01:17:44.753Z,80.71
2018-12-19T01:22:47.358Z,81.18
2018-12-19T01:27:50.494Z,80.73
2018-12-19T01:32:53.120Z,79.84
2018-12-19T01:37:55.793Z,79.36
2018-12-19T01:42:58.397Z,79.45
2018-12-19T01:48:00.998Z,79.63
2018-12-19T01:53:03.613Z,79.32
2018-12-19T01:58:06.411Z,79.34
2018-12-19T02:03:09.106Z,80.12
2018-12-19T02:08:12.524Z,80.03
2018-12-19T02:13:15.323Z,79.12
2018-12-19T02:18:18.115Z,79.43
2018-12-19T02:23:20.677Z,79.15
2018-12-19T02:28:23.296Z,79.72
2018-12-19T02:33:26.605Z,78.71
2018-12-19T02:38:29.379Z,78.41
2018-12-19T02:43:32.815Z,78.92
2018-12-19T02:48:35.382Z,78.49
2018-12-19T02:53:37.950Z,79.10
2018-12-19T02:58:40.617Z,79.67
2018-12-19T03:03:43.237Z,79.23
2018-12-19T03:08:46.017Z,78.78
2018-12-19T03:13:50.766Z,78.49
2018-12-19T03:18:53.629Z,78.78
2018-12-19T03:23:56.282Z,79.06
2018-12-19T03:28:58.958Z,78.56
2018-12-19T03:34:01.654Z,78.38
2018-12-19T03:39:06.506Z,78.09
2018-12-19T03:44:09.200Z,78.38
2018-12-19T03:49:11.883Z,77.29
2018-12-19T03:54:14.497Z,77.56
2018-12-19T03:59:17.180Z,78.14
2018-12-19T04:04:19.960Z,77.43
2018-12-19T04:09:22.650Z,77.82
2018-12-19T04:14:25.350Z,77.23
2018-12-19T04:19:27.900Z,77.34
2018-12-19T04:24:30.481Z,77.33
2018-12-19T04:29:33.834Z,77.44
2018-12-19T04:34:36.408Z,77.76
2018-12-19T04:39:39.176Z,77.27
2018-12-19T04:44:41.763Z,76.95
2018-12-19T04:49:44.638Z,77.25
2018-12-19T04:54:47.268Z,76.67
2018-12-19T04:59:50.201Z,77.37
2018-12-19T05:04:52.777Z,77.22
2018-12-19T05:09:55.581Z,77.34
2018-12-19T05:14:58.164Z,77.22
2018-12-19T05:20:00.964Z,77.13
2018-12-19T05:25:06.977Z,80.22
2018-12-19T05:30:10.060Z,75.67
2018-12-19T05:35:13.001Z,73.44
2018-12-19T05:40:18.770Z,73.15
2018-12-19T05:45:20.449Z,73.14
2018-12-19T05:50:23.481Z,75.46
2018-12-19T05:55:26.102Z,75.85
2018-12-19T06:00:29.167Z,76.43
2018-12-19T06:05:31.881Z,76.49
2018-12-19T06:10:34.474Z,75.87
2018-12-19T06:15:37.029Z,75.89
2018-12-19T06:20:39.789Z,76.58
2018-12-19T06:25:42.488Z,76.12
2018-12-19T06:30:45.288Z,76.38
2018-12-19T06:35:47.832Z,76.75
2018-12-19T06:40:50.449Z,76.26
2018-12-19T06:45:53.053Z,76.07
2018-12-19T06:50:55.681Z,76.41
2018-12-19T06:55:58.355Z,76.34
2018-12-19T07:01:01.120Z,75.81
2018-12-19T07:06:03.715Z,75.74
2018-12-19T07:11:06.306Z,76.60
2018-12-19T07:16:08.953Z,76.36
2018-12-19T07:21:11.521Z,76.54
2018-12-19T07:26:14.134Z,75.53
2018-12-19T07:31:16.724Z,76.42
2018-12-19T07:36:19.305Z,75.53
2018-12-19T07:41:22.031Z,75.69
2018-12-19T07:46:24.906Z,75.16
2018-12-19T07:51:27.978Z,75.73
2018-12-19T07:56:30.877Z,75.10
2018-12-19T08:01:34.062Z,75.29
2018-12-19T08:06:36.769Z,75.46
2018-12-19T08:11:40.072Z,74.99
2018-12-19T08:16:42.711Z,75.11
2018-12-19T08:21:45.372Z,75.31
2018-12-19T08:26:48.104Z,74.81
2018-12-19T08:31:50.649Z,73.22
2018-12-19T08:36:53.212Z,73.91
2018-12-19T08:41:56.249Z,73.83
2018-12-19T08:46:59.043Z,73.17
2018-12-19T08:52:01.685Z,72.83
2018-12-19T08:57:04.308Z,73.20
2018-12-19T09:02:06.935Z,72.32
2018-12-19T09:07:09.948Z,71.89
2018-12-19T09:12:12.625Z,71.52
2018-12-19T09:17:15.954Z,71.97
2018-12-19T09:22:19.147Z,71.28
2018-12-19T09:27:21.814Z,71.77
2018-12-19T09:32:24.755Z,71.57
2018-12-19T09:37:27.349Z,71.68
2018-12-19T09:42:30.045Z,71.72
2018-12-19T09:47:32.716Z,71.47
2018-12-19T09:52:35.639Z,71.59
2018-12-19T09:57:39.356Z,71.68
2018-12-19T10:02:42.077Z,70.56
2018-12-19T10:07:44.745Z,70.71
2018-12-19T10:12:48.175Z,70.81
2018-12-19T10:17:50.796Z,70.44
2018-12-19T10:22:54.888Z,70.47
2018-12-19T10:27:58.133Z,69.37
2018-12-19T10:33:00.899Z,70.10
2018-12-19T10:38:03.699Z,70.40
2018-12-19T10:43:06.255Z,70.11
2018-12-19T10:48:09.061Z,69.92
2018-12-19T10:53:11.931Z,69.99
2018-12-19T10:58:14.691Z,69.46
2018-12-19T11:03:17.406Z,69.82
2018-12-19T11:08:20.426Z,69.17
2018-12-19T11:13:23.109Z,69.45
2018-12-19T11:18:25.812Z,69.10
2018-12-19T11:23:30.307Z,69.70
2018-12-19T11:28:32.935Z,68.84
2018-12-19T11:33:35.583Z,69.06
2018-12-19T11:38:38.224Z,68.83
2018-12-19T11:43:40.890Z,69.35
2018-12-19T11:48:43.624Z,68.58
2018-12-19T11:53:46.464Z,69.56
2018-12-19T11:58:49.225Z,69.10
2018-12-19T12:03:51.976Z,69.86
2018-12-19T12:08:54.526Z,69.62
2018-12-19T12:13:57.065Z,70.07
2018-12-19T12:18:59.707Z,70.96
2018-12-19T12:24:02.471Z,70.61
2018-12-19T12:29:05.306Z,70.06
2018-12-19T12:34:08.097Z,69.75
2018-12-19T12:39:10.674Z,69.39
2018-12-19T12:44:13.265Z,68.84
2018-12-19T12:49:15.809Z,69.09
2018-12-19T12:54:19.174Z,69.45
2018-12-19T12:59:22.081Z,69.68
2018-12-19T13:04:24.910Z,69.42
2018-12-19T13:09:27.514Z,69.62
2018-12-19T13:14:30.301Z,69.44
2018-12-19T13:19:32.958Z,68.97
2018-12-19T13:24:36.003Z,69.09
2018-12-19T13:29:38.797Z,69.41
2018-12-19T13:34:41.706Z,69.59
2018-12-19T13:39:44.849Z,70.67
2018-12-19T13:44:47.431Z,69.96
2018-12-19T13:49:50.202Z,69.57
2018-12-19T13:54:52.826Z,69.94
2018-12-19T13:59:55.410Z,69.66
2018-12-19T14:04:58.096Z,69.56
2018-12-19T14:10:01.426Z,69.74
2018-12-19T14:15:04.874Z,69.58
2018-12-19T14:20:08.325Z,69.84
2018-12-19T14:25:11.826Z,69.93
2018-12-19T14:30:14.445Z,69.81
2018-12-19T14:35:17.659Z,70.01
2018-12-19T14:40:20.249Z,70.55
2018-12-19T14:45:23.099Z,70.73
2018-12-19T14:50:26.888Z,70.52
2018-12-19T14:55:29.493Z,70.33
2018-12-19T15:00:32.122Z,70.78
2018-12-19T15:05:34.725Z,70.41
2018-12-19T15:10:37.355Z,70.79
2018-12-19T15:15:40.053Z,70.57
2018-12-19T15:20:43.256Z,70.46
2018-12-19T15:25:46.037Z,70.55
2018-12-19T15:30:48.745Z,70.86
2018-12-19T15:35:51.438Z,71.12
2018-12-19T15:40:54.146Z,71.58
2018-12-19T15:45:57.062Z,71.32
2018-12-19T15:50:59.774Z,71.04
2018-12-19T15:56:02.364Z,71.15
2018-12-19T16:01:05.106Z,71.61
2018-12-19T16:06:07.985Z,71.52
2018-12-19T16:11:10.856Z,71.97
2018-12-19T16:16:13.502Z,71.49
2018-12-19T16:21:16.061Z,71.83
2018-12-19T16:26:18.619Z,71.76
2018-12-19T16:31:21.180Z,71.50
2018-12-19T16:36:23.827Z,71.98
2018-12-19T16:41:27.421Z,71.47
2018-12-19T16:46:30.251Z,71.76
2018-12-19T16:51:32.892Z,71.53
2018-12-19T16:56:35.656Z,71.74
2018-12-19T17:01:39.179Z,71.17
2018-12-19T17:06:41.781Z,72.26
2018-12-19T17:11:44.394Z,71.48
2018-12-19T17:16:47.054Z,72.68
2018-12-19T17:21:49.751Z,73.26
2018-12-19T17:26:52.298Z,73.68
2018-12-19T17:31:55.463Z,74.27
2018-12-19T17:36:58.079Z,74.56
2018-12-19T17:42:01.699Z,74.12
2018-12-19T17:47:04.540Z,74.48
2018-12-19T17:52:07.269Z,74.23
2018-12-19T17:57:09.821Z,74.41
2018-12-19T18:02:12.600Z,74.73
2018-12-19T18:07:15.260Z,75.43
2018-12-19T18:12:17.959Z,76.83
2018-12-19T18:17:20.634Z,76.38
2018-12-19T18:22:23.455Z,77.30
2018-12-19T18:27:26.047Z,76.50
2018-12-19T18:32:28.693Z,77.01
2018-12-19T18:37:31.263Z,78.37
2018-12-19T18:42:33.994Z,77.64
2018-12-19T18:47:37.297Z,78.90
2018-12-19T18:52:40.583Z,78.02
2018-12-19T18:57:43.260Z,79.70
2018-12-19T19:02:46.417Z,76.61
2018-12-19T19:07:49.190Z,78.10
2018-12-19T19:12:51.799Z,77.67
2018-12-19T19:17:54.386Z,77.31
2018-12-19T19:22:57.865Z,77.20
2018-12-19T19:28:00.521Z,77.38
2018-12-19T19:33:03.245Z,78.30
2018-12-19T19:43:12.690Z,80.06
2018-12-19T19:48:15.230Z,80.06
2018-12-19T19:53:18.112Z,79.97
2018-12-19T19:58:20.846Z,80.19
2018-12-19T20:03:23.650Z,80.85
2018-12-19T20:08:26.243Z,81.00
2018-12-19T20:13:33.303Z,80.63
2018-12-19T20:18:33.599Z,79.82
2018-12-19T20:23:36.246Z,79.95
2018-12-19T20:28:38.833Z,81.12
2018-12-19T20:33:41.433Z,80.30
2018-12-19T20:38:44.114Z,80.85
2018-12-19T20:43:46.854Z,81.17
2018-12-19T20:48:50.181Z,80.85
2018-12-19T20:53:53.502Z,80.73
2018-12-19T20:58:56.810Z,80.86
2018-12-19T21:03:59.509Z,80.31
2018-12-19T21:09:02.826Z,80.52
2018-12-19T21:14:05.488Z,80.35
2018-12-19T21:19:08.124Z,80.13
2018-12-19T21:24:10.815Z,79.86
2018-12-19T21:29:13.565Z,80.13
2018-12-19T21:34:16.310Z,81.12
2018-12-19T21:39:19.214Z,80.59
2018-12-19T21:44:22.037Z,81.68
2018-12-19T21:49:24.825Z,81.40
2018-12-19T21:54:27.802Z,81.89
2018-12-19T21:59:30.405Z,81.84
2018-12-19T22:04:33.007Z,82.74
2018-12-19T22:09:36.170Z,82.20
2018-12-19T22:14:38.789Z,82.20
2018-12-19T22:19:41.508Z,82.16
2018-12-19T22:24:45.123Z,82.12
2018-12-19T22:29:47.758Z,81.42
2018-12-19T22:34:50.941Z,82.07
2018-12-19T22:39:53.718Z,82.18
2018-12-19T22:44:56.399Z,81.59
2018-12-19T22:49:59.217Z,82.27
2018-12-19T22:55:01.850Z,81.95
2018-12-19T23:00:08.333Z,81.91
2018-12-19T23:05:11.219Z,81.30
2018-12-19T23:10:14.459Z,80.99
2018-12-19T23:15:19.229Z,80.43
2018-12-19T23:20:22.003Z,81.15
2018-12-19T23:25:24.699Z,81.34
2018-12-19T23:30:28.239Z,83.24
2018-12-19T23:35:31.057Z,84.15
2018-12-19T23:40:33.831Z,84.57
2018-12-19T23:45:36.646Z,84.63
2018-12-19T23:50:39.889Z,84.14
2018-12-19T23:55:42.582Z,83.33
